sensor_id;sensor_type;location;lat;lon;timestamp;temperature;humidity
3424;DHT22;1725;50.108;8.584;2022-07-10T16:43:14;21.20;1.00
3424;DHT22;1725;50.108;8.584;2022-07-10T16:45:41;21.30;1.00
3424;DHT22;1725;50.108;8.584;2022-07-10T16:48:09;21.40;1.00
3424;DHT22;1725;50.108;8.584;2022-07-10T16:50:35;21.60;1.00
3424;DHT22;1725;50.108;8.584;2022-07-10T16:53:02;21.90;1.00
3424;DHT22;1725;50.108;8.584;2022-07-10T16:55:28;22.10;1.00
3424;DHT22;1725;50.108;8.584;2022-07-10T16:57:54;22.00;1.00
3424;DHT22;1725;50.108;8.584;2022-07-10T17:00:20;21.80;1.00
3424;DHT22;1725;50.108;8.584;2022-07-10T17:02:46;21.70;1.00
3424;DHT22;1725;50.108;8.584;2022-07-10T17:05:12;21.70;1.00
3424;DHT22;1725;50.108;8.584;2022-07-10T17:07:39;21.80;1.00
3424;DHT22;1725;50.108;8.584;2022-07-10T17:10:06;21.80;1.00
3424;DHT22;1725;50.108;8.584;2022-07-10T17:12:32;21.60;1.00
3424;DHT22;1725;50.108;8.584;2022-07-10T17:14:58;21.40;1.00
3424;DHT22;1725;50.108;8.584;2022-07-10T17:17:24;21.20;1.00
3424;DHT22;1725;50.108;8.584;2022-07-10T17:19:50;21.10;1.00
3424;DHT22;1725;50.108;8.584;2022-07-10T17:22:17;20.80;1.00
3424;DHT22;1725;50.108;8.584;2022-07-10T17:24:43;20.90;1.00
3424;DHT22;1725;50.108;8.584;2022-07-10T17:27:09;20.80;1.00
3424;DHT22;1725;50.108;8.584;2022-07-10T17:29:35;20.90;1.00
3424;DHT22;1725;50.108;8.584;2022-07-10T17:32:00;20.90;1.00
3424;DHT22;1725;50.108;8.584;2022-07-10T17:34:26;20.80;1.00
3424;DHT22;1725;50.108;8.584;2022-07-10T17:36:51;20.90;1.00
3424;DHT22;1725;50.108;8.584;2022-07-10T17:39:18;21.10;1.00
3424;DHT22;1725;50.108;8.584;2022-07-10T17:41:44;21.10;1.00
3424;DHT22;1725;50.108;8.584;2022-07-10T17:44:10;21.00;1.00
3424;DHT22;1725;50.108;8.584;2022-07-10T17:46:35;22.10;1.00
3424;DHT22;1725;50.108;8.584;2022-07-10T17:49:02;20.60;1.00
3424;DHT22;1725;50.108;8.584;2022-07-10T17:51:28;20.60;1.00
3424;DHT22;1725;50.108;8.584;2022-07-10T17:53:53;20.40;1.00
3424;DHT22;1725;50.108;8.584;2022-07-10T17:56:19;20.40;1.00
3424;DHT22;1725;50.108;8.584;2022-07-10T17:58:47;20.40;1.00
3424;DHT22;1725;50.108;8.584;2022-07-10T18:01:13;20.70;1.00
3424;DHT22;1725;50.108;8.584;2022-07-10T18:03:38;21.20;1.00
3424;DHT22;1725;50.108;8.584;2022-07-10T18:06:04;21.50;1.00
3424;DHT22;1725;50.108;8.584;2022-07-10T18:08:30;21.50;1.00
3424;DHT22;1725;50.108;8.584;2022-07-10T18:10:58;21.30;1.00
3424;DHT22;1725;50.108;8.584;2022-07-10T18:13:23;21.10;1.00
3424;DHT22;1725;50.108;8.584;2022-07-10T18:15:49;21.00;1.00
3424;DHT22;1725;50.108;8.584;2022-07-10T18:18:15;20.70;1.00
3424;DHT22;1725;50.108;8.584;2022-07-10T18:20:40;20.70;1.00
3424;DHT22;1725;50.108;8.584;2022-07-10T18:23:06;20.60;1.00
3424;DHT22;1725;50.108;8.584;2022-07-10T18:25:33;20.50;1.00
3424;DHT22;1725;50.108;8.584;2022-07-10T18:27:59;20.40;1.00
3424;DHT22;1725;50.108;8.584;2022-07-10T18:30:25;20.40;1.00
3424;DHT22;1725;50.108;8.584;2022-07-10T18:32:50;20.30;1.00
3424;DHT22;1725;50.108;8.584;2022-07-10T18:35:34;20.10;1.00
3424;DHT22;1725;50.108;8.584;2022-07-10T18:38:00;20.10;1.00
3424;DHT22;1725;50.108;8.584;2022-07-10T18:40:26;20.00;1.00
3424;DHT22;1725;50.108;8.584;2022-07-10T18:42:52;19.80;1.00
3424;DHT22;1725;50.108;8.584;2022-07-10T18:45:18;19.80;1.00
3424;DHT22;1725;50.108;8.584;2022-07-10T18:47:43;19.80;1.00
3424;DHT22;1725;50.108;8.584;2022-07-10T18:50:09;19.70;1.00
3424;DHT22;1725;50.108;8.584;2022-07-10T18:52:35;19.60;1.00
3424;DHT22;1725;50.108;8.584;2022-07-10T18:55:00;19.60;1.00
3424;DHT22;1725;50.108;8.584;2022-07-10T18:57:26;19.50;1.00
3424;DHT22;1725;50.108;8.584;2022-07-10T18:59:51;19.40;1.00
3424;DHT22;1725;50.108;8.584;2022-07-10T19:02:17;19.30;1.00
3424;DHT22;1725;50.108;8.584;2022-07-10T19:04:43;19.30;1.00
3424;DHT22;1725;50.108;8.584;2022-07-10T19:07:08;19.20;1.00
3424;DHT22;1725;50.108;8.584;2022-07-10T19:09:34;19.30;1.00
3424;DHT22;1725;50.108;8.584;2022-07-10T19:12:00;19.30;1.00
3424;DHT22;1725;50.108;8.584;2022-07-10T19:14:26;19.10;1.00
3424;DHT22;1725;50.108;8.584;2022-07-10T19:16:52;19.20;1.00
3424;DHT22;1725;50.108;8.584;2022-07-10T19:19:18;19.20;1.00
3424;DHT22;1725;50.108;8.584;2022-07-10T19:21:43;19.20;1.00
3424;DHT22;1725;50.108;8.584;2022-07-10T19:24:09;19.10;1.00
3424;DHT22;1725;50.108;8.584;2022-07-10T19:26:36;19.10;1.00
3424;DHT22;1725;50.108;8.584;2022-07-10T19:29:01;18.90;1.00
3424;DHT22;1725;50.108;8.584;2022-07-10T19:31:27;19.10;1.00
3424;DHT22;1725;50.108;8.584;2022-07-10T19:33:53;19.00;1.00
3424;DHT22;1725;50.108;8.584;2022-07-10T19:36:19;19.00;1.00
3424;DHT22;1725;50.108;8.584;2022-07-10T19:38:45;19.00;1.00
3424;DHT22;1725;50.108;8.584;2022-07-10T19:41:11;19.00;1.00
3424;DHT22;1725;50.108;8.584;2022-07-10T19:43:40;19.00;1.00
3424;DHT22;1725;50.108;8.584;2022-07-10T19:46:07;18.90;1.00
3424;DHT22;1725;50.108;8.584;2022-07-10T19:48:37;18.90;1.00
3424;DHT22;1725;50.108;8.584;2022-07-10T19:51:05;18.90;1.00
3424;DHT22;1725;50.108;8.584;2022-07-10T19:53:32;18.80;1.00
3424;DHT22;1725;50.108;8.584;2022-07-10T19:55:57;18.80;1.00
3424;DHT22;1725;50.108;8.584;2022-07-10T19:58:23;18.90;1.00
3424;DHT22;1725;50.108;8.584;2022-07-10T20:00:49;18.90;1.00
3424;DHT22;1725;50.108;8.584;2022-07-10T20:03:17;18.90;1.00
3424;DHT22;1725;50.108;8.584;2022-07-10T20:05:43;18.90;1.00
3424;DHT22;1725;50.108;8.584;2022-07-10T20:08:09;18.90;1.00
3424;DHT22;1725;50.108;8.584;2022-07-10T20:10:35;18.90;1.00
3424;DHT22;1725;50.108;8.584;2022-07-10T20:13:00;18.80;1.00
3424;DHT22;1725;50.108;8.584;2022-07-10T20:15:26;18.70;1.00
3424;DHT22;1725;50.108;8.584;2022-07-10T20:17:52;18.60;1.00
3424;DHT22;1725;50.108;8.584;2022-07-10T20:20:17;18.70;1.00
3424;DHT22;1725;50.108;8.584;2022-07-10T20:22:43;18.70;1.00
3424;DHT22;1725;50.108;8.584;2022-07-10T20:25:10;18.60;1.00
3424;DHT22;1725;50.108;8.584;2022-07-10T20:27:36;18.60;1.00
3424;DHT22;1725;50.108;8.584;2022-07-10T20:30:11;18.50;1.00
3424;DHT22;1725;50.108;8.584;2022-07-10T20:32:40;18.60;1.00
3424;DHT22;1725;50.108;8.584;2022-07-10T20:35:06;18.70;1.00
3424;DHT22;1725;50.108;8.584;2022-07-10T20:37:32;18.60;1.00
3424;DHT22;1725;50.108;8.584;2022-07-10T20:40:17;18.60;1.00
3424;DHT22;1725;50.108;8.584;2022-07-10T20:42:43;18.50;1.00
3424;DHT22;1725;50.108;8.584;2022-07-10T20:45:10;18.40;1.00
3424;DHT22;1725;50.108;8.584;2022-07-10T20:47:41;18.50;1.00
3424;DHT22;1725;50.108;8.584;2022-07-10T20:50:08;18.30;1.00
3424;DHT22;1725;50.108;8.584;2022-07-10T20:52:34;18.40;1.00
3424;DHT22;1725;50.108;8.584;2022-07-10T20:55:01;18.40;1.00
3424;DHT22;1725;50.108;8.584;2022-07-10T20:57:27;18.40;1.00
3424;DHT22;1725;50.108;8.584;2022-07-10T20:59:52;18.40;1.00
3424;DHT22;1725;50.108;8.584;2022-07-10T21:02:18;18.50;1.00
3424;DHT22;1725;50.108;8.584;2022-07-10T21:04:44;18.30;1.00
3424;DHT22;1725;50.108;8.584;2022-07-10T21:07:11;18.40;1.00
3424;DHT22;1725;50.108;8.584;2022-07-10T21:09:37;18.40;1.00
3424;DHT22;1725;50.108;8.584;2022-07-10T21:12:03;18.50;1.00
3424;DHT22;1725;50.108;8.584;2022-07-10T21:14:29;18.40;1.00
3424;DHT22;1725;50.108;8.584;2022-07-10T21:16:54;18.40;1.00
3424;DHT22;1725;50.108;8.584;2022-07-10T21:19:21;18.40;1.00
3424;DHT22;1725;50.108;8.584;2022-07-10T21:21:47;18.40;1.00
3424;DHT22;1725;50.108;8.584;2022-07-10T21:24:12;18.40;1.00
3424;DHT22;1725;50.108;8.584;2022-07-10T21:26:38;18.50;1.00
3424;DHT22;1725;50.108;8.584;2022-07-10T21:29:04;18.60;1.00
3424;DHT22;1725;50.108;8.584;2022-07-10T21:31:29;18.50;1.00
3424;DHT22;1725;50.108;8.584;2022-07-10T21:33:55;18.50;1.00
3424;DHT22;1725;50.108;8.584;2022-07-10T21:36:21;18.60;1.00
3424;DHT22;1725;50.108;8.584;2022-07-10T21:38:46;18.60;1.00
3424;DHT22;1725;50.108;8.584;2022-07-10T21:41:12;18.50;1.00
3424;DHT22;1725;50.108;8.584;2022-07-10T21:43:40;18.50;1.00
3424;DHT22;1725;50.108;8.584;2022-07-10T21:46:06;18.60;1.00
3424;DHT22;1725;50.108;8.584;2022-07-10T21:48:32;18.60;1.00
3424;DHT22;1725;50.108;8.584;2022-07-10T21:50:58;18.50;1.00
3424;DHT22;1725;50.108;8.584;2022-07-10T21:53:27;18.50;1.00
3424;DHT22;1725;50.108;8.584;2022-07-10T21:55:53;18.70;1.00
3424;DHT22;1725;50.108;8.584;2022-07-10T21:58:19;18.70;1.00
3424;DHT22;1725;50.108;8.584;2022-07-10T22:00:44;18.60;1.00
3424;DHT22;1725;50.108;8.584;2022-07-10T22:03:10;18.60;1.00
3424;DHT22;1725;50.108;8.584;2022-07-10T22:05:36;18.60;1.00
3424;DHT22;1725;50.108;8.584;2022-07-10T22:08:04;18.60;1.00
3424;DHT22;1725;50.108;8.584;2022-07-10T22:10:30;18.60;1.00
3424;DHT22;1725;50.108;8.584;2022-07-10T22:12:56;18.90;1.00
3424;DHT22;1725;50.108;8.584;2022-07-10T22:15:21;18.70;1.00
3424;DHT22;1725;50.108;8.584;2022-07-10T22:17:47;18.70;1.00
3424;DHT22;1725;50.108;8.584;2022-07-10T22:20:13;18.80;1.00
3424;DHT22;1725;50.108;8.584;2022-07-10T22:22:40;19.00;1.00
3424;DHT22;1725;50.108;8.584;2022-07-10T22:25:07;18.70;1.00
3424;DHT22;1725;50.108;8.584;2022-07-10T22:27:33;18.70;1.00
3424;DHT22;1725;50.108;8.584;2022-07-10T22:29:59;18.70;1.00
3424;DHT22;1725;50.108;8.584;2022-07-10T22:32:24;18.70;1.00
3424;DHT22;1725;50.108;8.584;2022-07-10T22:34:51;18.50;1.00
3424;DHT22;1725;50.108;8.584;2022-07-10T22:37:16;18.50;1.00
3424;DHT22;1725;50.108;8.584;2022-07-10T22:39:42;18.50;1.00
3424;DHT22;1725;50.108;8.584;2022-07-10T22:42:07;18.40;1.00
3424;DHT22;1725;50.108;8.584;2022-07-10T22:44:33;18.30;1.00
3424;DHT22;1725;50.108;8.584;2022-07-10T22:46:58;18.40;1.00
3424;DHT22;1725;50.108;8.584;2022-07-10T22:52:00;18.40;1.00
3424;DHT22;1725;50.108;8.584;2022-07-10T22:56:59;18.40;1.00
3424;DHT22;1725;50.108;8.584;2022-07-10T22:59:25;18.30;1.00
3424;DHT22;1725;50.108;8.584;2022-07-10T23:01:50;18.30;1.00
3424;DHT22;1725;50.108;8.584;2022-07-10T23:04:16;18.30;1.00
3424;DHT22;1725;50.108;8.584;2022-07-10T23:06:41;18.40;1.00
3424;DHT22;1725;50.108;8.584;2022-07-10T23:09:07;18.40;1.00
3424;DHT22;1725;50.108;8.584;2022-07-10T23:11:33;18.30;1.00
3424;DHT22;1725;50.108;8.584;2022-07-10T23:13:58;18.30;1.00
3424;DHT22;1725;50.108;8.584;2022-07-10T23:16:25;18.30;1.00
3424;DHT22;1725;50.108;8.584;2022-07-10T23:21:26;18.40;1.00
3424;DHT22;1725;50.108;8.584;2022-07-10T23:23:52;18.40;1.00
3424;DHT22;1725;50.108;8.584;2022-07-10T23:28:53;18.30;1.00
3424;DHT22;1725;50.108;8.584;2022-07-10T23:31:19;18.30;1.00
3424;DHT22;1725;50.108;8.584;2022-07-10T23:33:44;18.30;1.00
3424;DHT22;1725;50.108;8.584;2022-07-10T23:36:10;18.30;1.00
3424;DHT22;1725;50.108;8.584;2022-07-10T23:38:35;18.40;1.00
3424;DHT22;1725;50.108;8.584;2022-07-10T23:41:01;18.40;1.00
3424;DHT22;1725;50.108;8.584;2022-07-10T23:43:26;18.40;1.00
3424;DHT22;1725;50.108;8.584;2022-07-10T23:45:52;18.40;1.00
3424;DHT22;1725;50.108;8.584;2022-07-10T23:50:53;18.30;1.00
3424;DHT22;1725;50.108;8.584;2022-07-10T23:53:19;18.30;1.00
3424;DHT22;1725;50.108;8.584;2022-07-10T23:55:44;18.30;1.00
3424;DHT22;1725;50.108;8.584;2022-07-10T23:58:10;18.30;1.00
